sensor_id;sensor_type;location;lat;lon;timestamp;temperature;humidity
10249;DHT22;5169;50.560;9.714;2023-11-19T00:00:56;6.20;99.90
10249;DHT22;5169;50.560;9.714;2023-11-19T00:03:22;6.10;99.90
10249;DHT22;5169;50.560;9.714;2023-11-19T00:05:48;6.20;99.90
10249;DHT22;5169;50.560;9.714;2023-11-19T00:08:13;6.20;99.90
10249;DHT22;5169;50.560;9.714;2023-11-19T00:10:39;6.20;99.90
10249;DHT22;5169;50.560;9.714;2023-11-19T00:13:06;6.20;99.90
10249;DHT22;5169;50.560;9.714;2023-11-19T00:15:32;6.30;99.90
10249;DHT22;5169;50.560;9.714;2023-11-19T00:18:00;6.20;99.90
10249;DHT22;5169;50.560;9.714;2023-11-19T00:20:30;6.30;99.90
10249;DHT22;5169;50.560;9.714;2023-11-19T00:22:58;6.30;99.90
10249;DHT22;5169;50.560;9.714;2023-11-19T00:25:23;6.40;99.90
10249;DHT22;5169;50.560;9.714;2023-11-19T00:27:51;6.40;99.90
10249;DHT22;5169;50.560;9.714;2023-11-19T00:30:21;6.40;99.90
10249;DHT22;5169;50.560;9.714;2023-11-19T00:32:46;6.50;99.90
10249;DHT22;5169;50.560;9.714;2023-11-19T00:35:12;6.40;99.90
10249;DHT22;5169;50.560;9.714;2023-11-19T00:37:40;6.40;99.90
10249;DHT22;5169;50.560;9.714;2023-11-19T00:40:08;6.50;99.90
10249;DHT22;5169;50.560;9.714;2023-11-19T00:42:35;6.50;99.90
10249;DHT22;5169;50.560;9.714;2023-11-19T00:45:01;6.50;99.90
10249;DHT22;5169;50.560;9.714;2023-11-19T00:47:26;6.50;99.90
10249;DHT22;5169;50.560;9.714;2023-11-19T00:49:56;6.50;99.90
10249;DHT22;5169;50.560;9.714;2023-11-19T00:52:21;6.50;99.90
10249;DHT22;5169;50.560;9.714;2023-11-19T00:54:49;6.50;99.90
10249;DHT22;5169;50.560;9.714;2023-11-19T00:57:17;6.50;99.90
10249;DHT22;5169;50.560;9.714;2023-11-19T00:59:43;6.50;99.90
10249;DHT22;5169;50.560;9.714;2023-11-19T01:02:12;6.50;99.90
10249;DHT22;5169;50.560;9.714;2023-11-19T01:04:40;6.60;99.90
10249;DHT22;5169;50.560;9.714;2023-11-19T01:07:06;6.50;99.90
10249;DHT22;5169;50.560;9.714;2023-11-19T01:09:32;6.50;99.90
10249;DHT22;5169;50.560;9.714;2023-11-19T01:12:00;6.50;99.90
10249;DHT22;5169;50.560;9.714;2023-11-19T01:14:27;6.50;99.90
10249;DHT22;5169;50.560;9.714;2023-11-19T01:16:56;6.50;99.90
10249;DHT22;5169;50.560;9.714;2023-11-19T01:19:24;6.60;99.90
10249;DHT22;5169;50.560;9.714;2023-11-19T01:21:50;6.60;99.90
10249;DHT22;5169;50.560;9.714;2023-11-19T01:24:16;6.60;99.90
10249;DHT22;5169;50.560;9.714;2023-11-19T01:26:43;6.60;99.90
10249;DHT22;5169;50.560;9.714;2023-11-19T01:29:11;6.60;99.90
10249;DHT22;5169;50.560;9.714;2023-11-19T01:31:40;6.70;99.90
10249;DHT22;5169;50.560;9.714;2023-11-19T01:34:08;6.70;99.90
10249;DHT22;5169;50.560;9.714;2023-11-19T01:36:39;6.70;99.90
10249;DHT22;5169;50.560;9.714;2023-11-19T01:39:04;6.70;99.90
10249;DHT22;5169;50.560;9.714;2023-11-19T01:41:37;6.70;99.90
10249;DHT22;5169;50.560;9.714;2023-11-19T01:44:06;6.80;99.90
10249;DHT22;5169;50.560;9.714;2023-11-19T01:46:35;6.80;99.90
10249;DHT22;5169;50.560;9.714;2023-11-19T01:49:02;6.80;99.90
10249;DHT22;5169;50.560;9.714;2023-11-19T01:51:28;6.90;99.90
10249;DHT22;5169;50.560;9.714;2023-11-19T01:53:55;6.80;99.90
10249;DHT22;5169;50.560;9.714;2023-11-19T01:56:25;6.90;99.90
10249;DHT22;5169;50.560;9.714;2023-11-19T01:58:56;6.90;99.90
10249;DHT22;5169;50.560;9.714;2023-11-19T02:01:23;6.90;99.90
10249;DHT22;5169;50.560;9.714;2023-11-19T02:03:49;6.90;99.90
10249;DHT22;5169;50.560;9.714;2023-11-19T02:06:14;7.00;99.90
10249;DHT22;5169;50.560;9.714;2023-11-19T02:08:40;7.00;99.90
10249;DHT22;5169;50.560;9.714;2023-11-19T02:11:07;7.00;99.90
10249;DHT22;5169;50.560;9.714;2023-11-19T02:13:32;7.00;99.90
10249;DHT22;5169;50.560;9.714;2023-11-19T02:15:58;7.00;99.90
10249;DHT22;5169;50.560;9.714;2023-11-19T02:18:26;7.10;99.90
10249;DHT22;5169;50.560;9.714;2023-11-19T02:20:58;7.10;99.90
10249;DHT22;5169;50.560;9.714;2023-11-19T02:23:26;7.10;99.90
10249;DHT22;5169;50.560;9.714;2023-11-19T02:28:39;7.10;99.90
10249;DHT22;5169;50.560;9.714;2023-11-19T02:31:07;7.20;99.90
10249;DHT22;5169;50.560;9.714;2023-11-19T02:33:35;7.20;99.90
10249;DHT22;5169;50.560;9.714;2023-11-19T02:36:05;7.20;99.90
10249;DHT22;5169;50.560;9.714;2023-11-19T02:38:32;7.20;99.90
10249;DHT22;5169;50.560;9.714;2023-11-19T02:40:58;7.20;99.90
10249;DHT22;5169;50.560;9.714;2023-11-19T02:43:26;7.20;99.90
10249;DHT22;5169;50.560;9.714;2023-11-19T02:46:02;7.30;99.90
10249;DHT22;5169;50.560;9.714;2023-11-19T02:48:27;7.30;99.90
10249;DHT22;5169;50.560;9.714;2023-11-19T02:50:55;7.30;99.90
10249;DHT22;5169;50.560;9.714;2023-11-19T02:53:26;7.30;99.90
10249;DHT22;5169;50.560;9.714;2023-11-19T02:55:54;7.40;99.90
10249;DHT22;5169;50.560;9.714;2023-11-19T02:58:28;7.40;99.90
10249;DHT22;5169;50.560;9.714;2023-11-19T03:00:55;7.40;99.90
10249;DHT22;5169;50.560;9.714;2023-11-19T03:03:25;7.40;99.90
10249;DHT22;5169;50.560;9.714;2023-11-19T03:05:56;7.40;99.90
10249;DHT22;5169;50.560;9.714;2023-11-19T03:08:22;7.50;99.90
10249;DHT22;5169;50.560;9.714;2023-11-19T03:10:48;7.50;99.90
10249;DHT22;5169;50.560;9.714;2023-11-19T03:13:14;7.50;99.90
10249;DHT22;5169;50.560;9.714;2023-11-19T03:15:40;7.60;99.90
10249;DHT22;5169;50.560;9.714;2023-11-19T03:18:06;7.50;99.90
10249;DHT22;5169;50.560;9.714;2023-11-19T03:20:32;7.60;99.90
10249;DHT22;5169;50.560;9.714;2023-11-19T03:23:00;7.60;99.90
10249;DHT22;5169;50.560;9.714;2023-11-19T03:25:27;7.60;99.90
10249;DHT22;5169;50.560;9.714;2023-11-19T03:28:00;7.60;99.90
10249;DHT22;5169;50.560;9.714;2023-11-19T03:30:29;7.60;99.90
10249;DHT22;5169;50.560;9.714;2023-11-19T03:32:58;7.70;99.90
10249;DHT22;5169;50.560;9.714;2023-11-19T03:35:25;7.70;99.90
10249;DHT22;5169;50.560;9.714;2023-11-19T03:37:55;7.70;99.90
10249;DHT22;5169;50.560;9.714;2023-11-19T03:40:23;7.70;99.90
10249;DHT22;5169;50.560;9.714;2023-11-19T03:42:50;7.70;99.90
10249;DHT22;5169;50.560;9.714;2023-11-19T03:45:16;7.70;99.90
10249;DHT22;5169;50.560;9.714;2023-11-19T03:47:44;7.70;99.90
10249;DHT22;5169;50.560;9.714;2023-11-19T03:50:09;7.70;99.90
10249;DHT22;5169;50.560;9.714;2023-11-19T03:52:35;7.70;99.90
10249;DHT22;5169;50.560;9.714;2023-11-19T03:55:01;7.70;99.90
10249;DHT22;5169;50.560;9.714;2023-11-19T03:57:29;7.70;99.90
10249;DHT22;5169;50.560;9.714;2023-11-19T03:59:56;7.80;99.90
10249;DHT22;5169;50.560;9.714;2023-11-19T04:02:23;7.90;99.90
10249;DHT22;5169;50.560;9.714;2023-11-19T04:04:54;7.90;99.90
10249;DHT22;5169;50.560;9.714;2023-11-19T04:07:21;8.00;99.90
10249;DHT22;5169;50.560;9.714;2023-11-19T04:09:46;8.00;99.90
10249;DHT22;5169;50.560;9.714;2023-11-19T04:12:14;7.90;99.90
10249;DHT22;5169;50.560;9.714;2023-11-19T04:14:40;8.00;99.90
10249;DHT22;5169;50.560;9.714;2023-11-19T04:17:06;8.00;99.90
10249;DHT22;5169;50.560;9.714;2023-11-19T04:19:31;8.00;99.90
10249;DHT22;5169;50.560;9.714;2023-11-19T04:21:58;8.00;99.90
10249;DHT22;5169;50.560;9.714;2023-11-19T04:24:23;8.00;99.90
10249;DHT22;5169;50.560;9.714;2023-11-19T04:26:50;8.00;99.90
10249;DHT22;5169;50.560;9.714;2023-11-19T04:29:18;8.00;99.90
10249;DHT22;5169;50.560;9.714;2023-11-19T04:31:44;8.00;99.90
10249;DHT22;5169;50.560;9.714;2023-11-19T04:34:11;8.10;99.90
10249;DHT22;5169;50.560;9.714;2023-11-19T04:36:37;8.10;99.90
10249;DHT22;5169;50.560;9.714;2023-11-19T04:39:03;8.20;99.90
10249;DHT22;5169;50.560;9.714;2023-11-19T04:41:34;8.20;99.90
10249;DHT22;5169;50.560;9.714;2023-11-19T04:44:00;8.10;99.90
10249;DHT22;5169;50.560;9.714;2023-11-19T04:46:25;8.20;99.90
10249;DHT22;5169;50.560;9.714;2023-11-19T04:48:51;8.20;99.90
10249;DHT22;5169;50.560;9.714;2023-11-19T04:51:16;8.20;99.90
10249;DHT22;5169;50.560;9.714;2023-11-19T04:53:42;8.20;99.90
10249;DHT22;5169;50.560;9.714;2023-11-19T04:56:11;8.30;99.90
10249;DHT22;5169;50.560;9.714;2023-11-19T04:58:37;8.30;99.90
10249;DHT22;5169;50.560;9.714;2023-11-19T05:01:06;8.30;99.90
10249;DHT22;5169;50.560;9.714;2023-11-19T05:03:34;8.40;99.90
10249;DHT22;5169;50.560;9.714;2023-11-19T05:06:00;8.30;99.90
10249;DHT22;5169;50.560;9.714;2023-11-19T05:08:26;8.40;99.90
10249;DHT22;5169;50.560;9.714;2023-11-19T05:10:54;8.30;99.90
10249;DHT22;5169;50.560;9.714;2023-11-19T05:13:20;8.40;99.90
10249;DHT22;5169;50.560;9.714;2023-11-19T05:15:47;8.40;99.90
10249;DHT22;5169;50.560;9.714;2023-11-19T05:18:13;8.50;99.90
10249;DHT22;5169;50.560;9.714;2023-11-19T05:20:38;8.50;99.90
10249;DHT22;5169;50.560;9.714;2023-11-19T05:23:06;8.50;99.90
10249;DHT22;5169;50.560;9.714;2023-11-19T05:25:34;8.50;99.90
10249;DHT22;5169;50.560;9.714;2023-11-19T05:28:01;8.50;99.90
10249;DHT22;5169;50.560;9.714;2023-11-19T05:30:27;8.50;99.90
10249;DHT22;5169;50.560;9.714;2023-11-19T05:32:53;8.50;99.90
10249;DHT22;5169;50.560;9.714;2023-11-19T05:35:18;8.60;99.90
10249;DHT22;5169;50.560;9.714;2023-11-19T05:37:46;8.60;99.90
10249;DHT22;5169;50.560;9.714;2023-11-19T05:40:14;8.60;99.90
10249;DHT22;5169;50.560;9.714;2023-11-19T05:42:40;8.60;99.90
10249;DHT22;5169;50.560;9.714;2023-11-19T05:45:07;8.70;99.90
10249;DHT22;5169;50.560;9.714;2023-11-19T05:47:36;8.70;99.90
10249;DHT22;5169;50.560;9.714;2023-11-19T05:50:04;8.80;99.90
10249;DHT22;5169;50.560;9.714;2023-11-19T05:52:31;8.80;99.90
10249;DHT22;5169;50.560;9.714;2023-11-19T05:55:00;8.80;99.90
10249;DHT22;5169;50.560;9.714;2023-11-19T05:57:29;8.80;99.90
10249;DHT22;5169;50.560;9.714;2023-11-19T05:59:57;8.90;99.90
10249;DHT22;5169;50.560;9.714;2023-11-19T06:02:24;8.90;99.90
10249;DHT22;5169;50.560;9.714;2023-11-19T06:04:53;8.90;99.90
10249;DHT22;5169;50.560;9.714;2023-11-19T06:07:18;8.90;99.90
10249;DHT22;5169;50.560;9.714;2023-11-19T06:09:45;9.00;99.90
10249;DHT22;5169;50.560;9.714;2023-11-19T06:12:10;8.90;99.90
10249;DHT22;5169;50.560;9.714;2023-11-19T06:14:38;9.00;99.90
10249;DHT22;5169;50.560;9.714;2023-11-19T06:17:05;9.00;99.90
10249;DHT22;5169;50.560;9.714;2023-11-19T06:19:33;9.00;99.90
10249;DHT22;5169;50.560;9.714;2023-11-19T06:21:59;9.00;99.90
10249;DHT22;5169;50.560;9.714;2023-11-19T06:24:27;9.00;99.90
10249;DHT22;5169;50.560;9.714;2023-11-19T06:26:53;9.10;99.90
10249;DHT22;5169;50.560;9.714;2023-11-19T06:29:19;9.00;99.90
10249;DHT22;5169;50.560;9.714;2023-11-19T06:31:45;9.00;99.90
10249;DHT22;5169;50.560;9.714;2023-11-19T06:34:14;9.10;99.90
10249;DHT22;5169;50.560;9.714;2023-11-19T06:36:42;9.10;99.90
10249;DHT22;5169;50.560;9.714;2023-11-19T06:39:10;9.10;99.90
10249;DHT22;5169;50.560;9.714;2023-11-19T06:41:36;9.10;99.90
10249;DHT22;5169;50.560;9.714;2023-11-19T06:44:04;9.10;99.90
10249;DHT22;5169;50.560;9.714;2023-11-19T06:46:30;9.10;99.90
10249;DHT22;5169;50.560;9.714;2023-11-19T06:48:56;9.20;99.90
10249;DHT22;5169;50.560;9.714;2023-11-19T06:51:22;9.20;99.90
10249;DHT22;5169;50.560;9.714;2023-11-19T06:53:50;9.20;99.90
10249;DHT22;5169;50.560;9.714;2023-11-19T06:56:23;9.30;99.90
10249;DHT22;5169;50.560;9.714;2023-11-19T06:58:49;9.30;99.90
10249;DHT22;5169;50.560;9.714;2023-11-19T07:01:15;9.30;99.90
10249;DHT22;5169;50.560;9.714;2023-11-19T07:03:41;9.40;99.90
10249;DHT22;5169;50.560;9.714;2023-11-19T07:06:07;9.40;99.90
10249;DHT22;5169;50.560;9.714;2023-11-19T07:08:33;9.40;99.90
10249;DHT22;5169;50.560;9.714;2023-11-19T07:10:59;9.50;99.90
10249;DHT22;5169;50.560;9.714;2023-11-19T07:13:27;9.50;99.90
10249;DHT22;5169;50.560;9.714;2023-11-19T07:15:55;9.50;99.90
10249;DHT22;5169;50.560;9.714;2023-11-19T07:18:21;9.50;99.90
10249;DHT22;5169;50.560;9.714;2023-11-19T07:20:49;9.50;99.90
10249;DHT22;5169;50.560;9.714;2023-11-19T07:23:15;9.50;99.90
10249;DHT22;5169;50.560;9.714;2023-11-19T07:25:43;9.50;99.90
10249;DHT22;5169;50.560;9.714;2023-11-19T07:28:13;9.50;99.90
10249;DHT22;5169;50.560;9.714;2023-11-19T07:30:38;9.50;99.90
10249;DHT22;5169;50.560;9.714;2023-11-19T07:33:04;9.50;99.90
10249;DHT22;5169;50.560;9.714;2023-11-19T07:35:32;9.60;99.90
10249;DHT22;5169;50.560;9.714;2023-11-19T07:37:58;9.60;99.90
10249;DHT22;5169;50.560;9.714;2023-11-19T07:40:24;9.60;99.90
10249;DHT22;5169;50.560;9.714;2023-11-19T07:42:50;9.70;99.90
10249;DHT22;5169;50.560;9.714;2023-11-19T07:45:16;9.70;99.90
10249;DHT22;5169;50.560;9.714;2023-11-19T07:47:49;9.70;99.90
10249;DHT22;5169;50.560;9.714;2023-11-19T07:50:16;9.70;99.90
10249;DHT22;5169;50.560;9.714;2023-11-19T07:52:47;9.80;99.90
10249;DHT22;5169;50.560;9.714;2023-11-19T07:55:12;9.80;99.90
10249;DHT22;5169;50.560;9.714;2023-11-19T07:57:41;9.80;99.90
10249;DHT22;5169;50.560;9.714;2023-11-19T08:00:09;9.90;99.90
10249;DHT22;5169;50.560;9.714;2023-11-19T08:02:38;9.90;99.90
10249;DHT22;5169;50.560;9.714;2023-11-19T08:05:04;9.90;99.90
10249;DHT22;5169;50.560;9.714;2023-11-19T08:07:30;9.90;99.90
10249;DHT22;5169;50.560;9.714;2023-11-19T08:09:55;10.00;99.90
10249;DHT22;5169;50.560;9.714;2023-11-19T08:12:21;9.90;99.90
10249;DHT22;5169;50.560;9.714;2023-11-19T08:14:46;9.90;99.90
10249;DHT22;5169;50.560;9.714;2023-11-19T08:17:12;10.00;99.90
10249;DHT22;5169;50.560;9.714;2023-11-19T08:19:37;10.00;99.90
10249;DHT22;5169;50.560;9.714;2023-11-19T08:22:05;10.10;99.90
10249;DHT22;5169;50.560;9.714;2023-11-19T08:24:35;10.20;99.90
10249;DHT22;5169;50.560;9.714;2023-11-19T08:27:01;10.30;99.90
10249;DHT22;5169;50.560;9.714;2023-11-19T08:29:26;10.30;99.90
10249;DHT22;5169;50.560;9.714;2023-11-19T08:31:53;10.40;99.90
10249;DHT22;5169;50.560;9.714;2023-11-19T08:34:18;10.50;99.90
10249;DHT22;5169;50.560;9.714;2023-11-19T08:36:44;10.50;99.90
10249;DHT22;5169;50.560;9.714;2023-11-19T08:39:10;10.80;99.90
10249;DHT22;5169;50.560;9.714;2023-11-19T08:41:36;11.20;99.90
10249;DHT22;5169;50.560;9.714;2023-11-19T08:44:03;11.50;99.90
10249;DHT22;5169;50.560;9.714;2023-11-19T08:46:29;12.00;99.90
10249;DHT22;5169;50.560;9.714;2023-11-19T08:48:54;12.10;99.90
10249;DHT22;5169;50.560;9.714;2023-11-19T08:51:23;12.10;99.90
10249;DHT22;5169;50.560;9.714;2023-11-19T08:53:52;12.10;99.90
10249;DHT22;5169;50.560;9.714;2023-11-19T08:56:17;12.10;99.90
10249;DHT22;5169;50.560;9.714;2023-11-19T08:58:43;12.10;99.90
10249;DHT22;5169;50.560;9.714;2023-11-19T09:01:11;12.20;99.90
10249;DHT22;5169;50.560;9.714;2023-11-19T09:03:39;12.10;99.90
10249;DHT22;5169;50.560;9.714;2023-11-19T09:06:05;12.10;99.90
10249;DHT22;5169;50.560;9.714;2023-11-19T09:08:31;12.50;99.90
10249;DHT22;5169;50.560;9.714;2023-11-19T09:10:57;12.90;99.90
10249;DHT22;5169;50.560;9.714;2023-11-19T09:13:22;13.40;99.90
10249;DHT22;5169;50.560;9.714;2023-11-19T09:15:48;13.80;99.90
10249;DHT22;5169;50.560;9.714;2023-11-19T09:18:14;14.40;99.90
10249;DHT22;5169;50.560;9.714;2023-11-19T09:20:39;14.90;99.90
10249;DHT22;5169;50.560;9.714;2023-11-19T09:23:07;15.10;99.90
10249;DHT22;5169;50.560;9.714;2023-11-19T09:25:34;15.20;99.90
10249;DHT22;5169;50.560;9.714;2023-11-19T09:27:59;15.20;99.90
10249;DHT22;5169;50.560;9.714;2023-11-19T09:30:25;15.60;99.90
10249;DHT22;5169;50.560;9.714;2023-11-19T09:32:53;15.80;99.90
10249;DHT22;5169;50.560;9.714;2023-11-19T09:35:18;15.50;99.90
10249;DHT22;5169;50.560;9.714;2023-11-19T09:37:44;15.60;99.90
10249;DHT22;5169;50.560;9.714;2023-11-19T09:40:12;16.20;99.90
10249;DHT22;5169;50.560;9.714;2023-11-19T09:42:44;16.30;99.90
10249;DHT22;5169;50.560;9.714;2023-11-19T09:45:16;16.40;99.90
10249;DHT22;5169;50.560;9.714;2023-11-19T09:47:44;15.60;99.90
10249;DHT22;5169;50.560;9.714;2023-11-19T09:50:18;14.90;99.90
10249;DHT22;5169;50.560;9.714;2023-11-19T09:52:44;14.10;99.90
10249;DHT22;5169;50.560;9.714;2023-11-19T09:55:10;13.50;99.90
10249;DHT22;5169;50.560;9.714;2023-11-19T09:57:38;13.30;99.90
10249;DHT22;5169;50.560;9.714;2023-11-19T10:00:08;13.50;99.90
10249;DHT22;5169;50.560;9.714;2023-11-19T10:02:35;13.50;99.90
10249;DHT22;5169;50.560;9.714;2023-11-19T10:05:05;13.40;99.90
10249;DHT22;5169;50.560;9.714;2023-11-19T10:07:36;13.80;99.90
10249;DHT22;5169;50.560;9.714;2023-11-19T10:10:03;15.00;99.90
10249;DHT22;5169;50.560;9.714;2023-11-19T10:12:31;16.00;99.90
10249;DHT22;5169;50.560;9.714;2023-11-19T10:14:58;16.80;99.90
10249;DHT22;5169;50.560;9.714;2023-11-19T10:17:33;17.60;99.90
10249;DHT22;5169;50.560;9.714;2023-11-19T10:19:58;18.60;99.90
10249;DHT22;5169;50.560;9.714;2023-11-19T10:22:24;19.10;99.90
10249;DHT22;5169;50.560;9.714;2023-11-19T10:24:52;20.00;99.90
10249;DHT22;5169;50.560;9.714;2023-11-19T10:27:17;19.10;99.90
10249;DHT22;5169;50.560;9.714;2023-11-19T10:29:47;18.50;99.90
10249;DHT22;5169;50.560;9.714;2023-11-19T10:32:13;17.70;99.90
10249;DHT22;5169;50.560;9.714;2023-11-19T10:34:44;16.70;99.90
10249;DHT22;5169;50.560;9.714;2023-11-19T10:37:31;15.70;99.90
10249;DHT22;5169;50.560;9.714;2023-11-19T10:40:02;16.10;99.90
10249;DHT22;5169;50.560;9.714;2023-11-19T10:42:31;15.10;99.90
10249;DHT22;5169;50.560;9.714;2023-11-19T10:44:57;15.50;99.90
10249;DHT22;5169;50.560;9.714;2023-11-19T10:47:23;15.60;99.90
10249;DHT22;5169;50.560;9.714;2023-11-19T10:49:49;15.70;99.90
10249;DHT22;5169;50.560;9.714;2023-11-19T10:52:22;15.80;99.90
10249;DHT22;5169;50.560;9.714;2023-11-19T10:54:55;16.10;99.90
10249;DHT22;5169;50.560;9.714;2023-11-19T10:57:27;17.10;99.90
10249;DHT22;5169;50.560;9.714;2023-11-19T11:00:00;18.60;99.90
10249;DHT22;5169;50.560;9.714;2023-11-19T11:02:34;18.90;99.90
10249;DHT22;5169;50.560;9.714;2023-11-19T11:05:01;19.00;99.90
10249;DHT22;5169;50.560;9.714;2023-11-19T11:07:30;18.80;99.90
10249;DHT22;5169;50.560;9.714;2023-11-19T11:09:59;18.30;99.30
10249;DHT22;5169;50.560;9.714;2023-11-19T11:12:25;18.40;98.90
10249;DHT22;5169;50.560;9.714;2023-11-19T11:14:54;18.40;97.90
10249;DHT22;5169;50.560;9.714;2023-11-19T11:17:24;18.90;97.90
10249;DHT22;5169;50.560;9.714;2023-11-19T11:19:56;18.40;97.60
10249;DHT22;5169;50.560;9.714;2023-11-19T11:22:25;18.20;97.60
10249;DHT22;5169;50.560;9.714;2023-11-19T11:36:21;17.60;97.80
10249;DHT22;5169;50.560;9.714;2023-11-19T11:38:49;18.40;97.00
10249;DHT22;5169;50.560;9.714;2023-11-19T11:41:19;18.30;97.50
10249;DHT22;5169;50.560;9.714;2023-11-19T11:43:55;17.90;97.00
10249;DHT22;5169;50.560;9.714;2023-11-19T11:49:04;17.00;99.10
10249;DHT22;5169;50.560;9.714;2023-11-19T11:59:45;15.10;99.90
10249;DHT22;5169;50.560;9.714;2023-11-19T12:02:14;14.80;99.90
10249;DHT22;5169;50.560;9.714;2023-11-19T12:04:42;14.40;99.90
10249;DHT22;5169;50.560;9.714;2023-11-19T12:07:17;14.00;99.90
10249;DHT22;5169;50.560;9.714;2023-11-19T12:09:48;14.10;99.90
10249;DHT22;5169;50.560;9.714;2023-11-19T12:20:10;15.90;99.90
10249;DHT22;5169;50.560;9.714;2023-11-19T12:22:39;17.40;98.90
10249;DHT22;5169;50.560;9.714;2023-11-19T12:25:06;17.60;98.40
10249;DHT22;5169;50.560;9.714;2023-11-19T12:27:33;17.70;97.40
10249;DHT22;5169;50.560;9.714;2023-11-19T12:30:00;17.20;98.20
10249;DHT22;5169;50.560;9.714;2023-11-19T12:32:25;17.30;97.80
10249;DHT22;5169;50.560;9.714;2023-11-19T12:34:53;17.40;97.90
10249;DHT22;5169;50.560;9.714;2023-11-19T12:37:21;17.70;97.50
10249;DHT22;5169;50.560;9.714;2023-11-19T12:39:47;17.90;97.20
10249;DHT22;5169;50.560;9.714;2023-11-19T12:42:12;18.50;95.90
10249;DHT22;5169;50.560;9.714;2023-11-19T12:44:38;17.90;95.80
10249;DHT22;5169;50.560;9.714;2023-11-19T12:47:07;18.00;96.30
10249;DHT22;5169;50.560;9.714;2023-11-19T12:49:35;18.60;95.10
10249;DHT22;5169;50.560;9.714;2023-11-19T12:52:10;18.90;95.10
10249;DHT22;5169;50.560;9.714;2023-11-19T12:54:37;19.30;95.00
10249;DHT22;5169;50.560;9.714;2023-11-19T12:57:04;18.80;93.90
10249;DHT22;5169;50.560;9.714;2023-11-19T12:59:30;17.90;95.40
10249;DHT22;5169;50.560;9.714;2023-11-19T13:01:57;18.40;94.90
10249;DHT22;5169;50.560;9.714;2023-11-19T13:04:23;18.10;94.30
10249;DHT22;5169;50.560;9.714;2023-11-19T13:06:52;17.20;96.40
10249;DHT22;5169;50.560;9.714;2023-11-19T13:09:28;16.90;96.90
10249;DHT22;5169;50.560;9.714;2023-11-19T13:11:54;17.00;97.00
10249;DHT22;5169;50.560;9.714;2023-11-19T13:14:35;17.00;97.10
10249;DHT22;5169;50.560;9.714;2023-11-19T13:17:04;17.20;96.60
10249;DHT22;5169;50.560;9.714;2023-11-19T13:19:31;17.50;97.00
10249;DHT22;5169;50.560;9.714;2023-11-19T13:21:56;17.70;96.80
10249;DHT22;5169;50.560;9.714;2023-11-19T13:24:24;17.30;96.90
10249;DHT22;5169;50.560;9.714;2023-11-19T13:26:52;16.90;97.40
10249;DHT22;5169;50.560;9.714;2023-11-19T13:29:18;16.30;99.50
10249;DHT22;5169;50.560;9.714;2023-11-19T13:31:43;15.60;99.60
10249;DHT22;5169;50.560;9.714;2023-11-19T13:34:09;15.20;99.90
10249;DHT22;5169;50.560;9.714;2023-11-19T13:36:37;14.80;99.90
10249;DHT22;5169;50.560;9.714;2023-11-19T13:39:05;14.70;99.90
10249;DHT22;5169;50.560;9.714;2023-11-19T13:41:30;14.50;99.90
10249;DHT22;5169;50.560;9.714;2023-11-19T13:43:56;14.30;99.90
10249;DHT22;5169;50.560;9.714;2023-11-19T13:46:21;14.30;99.90
10249;DHT22;5169;50.560;9.714;2023-11-19T13:48:47;14.20;99.90
10249;DHT22;5169;50.560;9.714;2023-11-19T13:51:15;14.00;99.90
10249;DHT22;5169;50.560;9.714;2023-11-19T13:53:40;14.00;99.90
10249;DHT22;5169;50.560;9.714;2023-11-19T13:56:07;13.90;99.90
10249;DHT22;5169;50.560;9.714;2023-11-19T13:58:33;13.90;99.90
10249;DHT22;5169;50.560;9.714;2023-11-19T14:00:58;13.90;99.90
10249;DHT22;5169;50.560;9.714;2023-11-19T14:03:24;13.90;99.90
10249;DHT22;5169;50.560;9.714;2023-11-19T14:05:52;13.80;99.90
10249;DHT22;5169;50.560;9.714;2023-11-19T14:08:20;13.70;99.90
10249;DHT22;5169;50.560;9.714;2023-11-19T14:10:46;13.70;99.90
10249;DHT22;5169;50.560;9.714;2023-11-19T14:13:11;13.50;99.90
10249;DHT22;5169;50.560;9.714;2023-11-19T14:15:37;13.50;99.90
10249;DHT22;5169;50.560;9.714;2023-11-19T14:18:02;13.40;99.90
10249;DHT22;5169;50.560;9.714;2023-11-19T14:20:28;13.40;99.90
10249;DHT22;5169;50.560;9.714;2023-11-19T14:22:54;13.40;99.90
10249;DHT22;5169;50.560;9.714;2023-11-19T14:25:20;13.30;99.90
10249;DHT22;5169;50.560;9.714;2023-11-19T14:27:46;13.30;99.90
10249;DHT22;5169;50.560;9.714;2023-11-19T14:30:12;13.20;99.90
10249;DHT22;5169;50.560;9.714;2023-11-19T14:32:42;13.20;99.90
10249;DHT22;5169;50.560;9.714;2023-11-19T14:35:09;13.10;99.90
10249;DHT22;5169;50.560;9.714;2023-11-19T14:37:35;13.00;99.90
10249;DHT22;5169;50.560;9.714;2023-11-19T14:40:01;12.90;99.90
10249;DHT22;5169;50.560;9.714;2023-11-19T14:42:31;12.90;99.90
10249;DHT22;5169;50.560;9.714;2023-11-19T14:44:59;12.90;99.90
10249;DHT22;5169;50.560;9.714;2023-11-19T14:47:27;12.80;99.90
10249;DHT22;5169;50.560;9.714;2023-11-19T14:49:54;12.60;99.90
10249;DHT22;5169;50.560;9.714;2023-11-19T14:52:20;12.50;99.90
10249;DHT22;5169;50.560;9.714;2023-11-19T14:54:45;12.40;99.90
10249;DHT22;5169;50.560;9.714;2023-11-19T14:57:11;12.30;99.90
10249;DHT22;5169;50.560;9.714;2023-11-19T14:59:39;12.00;99.90
10249;DHT22;5169;50.560;9.714;2023-11-19T15:02:05;11.90;99.90
10249;DHT22;5169;50.560;9.714;2023-11-19T15:04:31;11.70;99.90
10249;DHT22;5169;50.560;9.714;2023-11-19T15:06:57;11.50;99.90
10249;DHT22;5169;50.560;9.714;2023-11-19T15:09:23;11.30;99.90
10249;DHT22;5169;50.560;9.714;2023-11-19T15:11:50;11.20;99.90
10249;DHT22;5169;50.560;9.714;2023-11-19T15:14:16;11.10;99.90
10249;DHT22;5169;50.560;9.714;2023-11-19T15:16:45;11.00;99.90
10249;DHT22;5169;50.560;9.714;2023-11-19T15:19:12;11.10;99.90
10249;DHT22;5169;50.560;9.714;2023-11-19T15:21:38;11.00;99.90
10249;DHT22;5169;50.560;9.714;2023-11-19T15:24:06;10.90;99.90
10249;DHT22;5169;50.560;9.714;2023-11-19T15:26:36;10.80;99.90
10249;DHT22;5169;50.560;9.714;2023-11-19T15:29:02;10.60;99.90
10249;DHT22;5169;50.560;9.714;2023-11-19T15:31:28;10.40;99.90
10249;DHT22;5169;50.560;9.714;2023-11-19T15:33:58;10.30;99.90
10249;DHT22;5169;50.560;9.714;2023-11-19T15:36:24;10.30;99.90
10249;DHT22;5169;50.560;9.714;2023-11-19T15:38:52;10.20;99.90
10249;DHT22;5169;50.560;9.714;2023-11-19T15:41:17;10.30;99.90
10249;DHT22;5169;50.560;9.714;2023-11-19T15:43:43;10.30;99.90
10249;DHT22;5169;50.560;9.714;2023-11-19T15:46:09;10.30;99.90
10249;DHT22;5169;50.560;9.714;2023-11-19T15:48:36;10.30;99.90
10249;DHT22;5169;50.560;9.714;2023-11-19T15:51:07;10.30;99.90
10249;DHT22;5169;50.560;9.714;2023-11-19T15:53:33;10.30;99.90
10249;DHT22;5169;50.560;9.714;2023-11-19T15:55:59;10.40;99.90
10249;DHT22;5169;50.560;9.714;2023-11-19T15:58:25;10.30;99.90
10249;DHT22;5169;50.560;9.714;2023-11-19T16:00:53;10.30;99.90
10249;DHT22;5169;50.560;9.714;2023-11-19T16:03:21;10.40;99.90
10249;DHT22;5169;50.560;9.714;2023-11-19T16:05:48;10.40;99.90
10249;DHT22;5169;50.560;9.714;2023-11-19T16:08:16;10.30;99.90
10249;DHT22;5169;50.560;9.714;2023-11-19T16:10:42;10.40;99.90
10249;DHT22;5169;50.560;9.714;2023-11-19T16:13:09;10.40;99.90
10249;DHT22;5169;50.560;9.714;2023-11-19T16:15:37;10.30;99.90
10249;DHT22;5169;50.560;9.714;2023-11-19T16:18:03;10.20;99.90
10249;DHT22;5169;50.560;9.714;2023-11-19T16:20:37;10.10;99.90
10249;DHT22;5169;50.560;9.714;2023-11-19T16:23:05;10.10;99.90
10249;DHT22;5169;50.560;9.714;2023-11-19T16:25:35;10.00;99.90
10249;DHT22;5169;50.560;9.714;2023-11-19T16:28:03;9.90;99.90